createdAt,value
2019-04-14T00:03:34.742Z,6.33
2019-04-14T00:08:41.585Z,6.34
2019-04-14T00:13:47.886Z,6.22
2019-04-14T00:18:53.708Z,6.15
2019-04-14T00:23:59.298Z,6.22
2019-04-14T00:29:06.798Z,6.27
2019-04-14T00:34:13.938Z,6.28
2019-04-14T00:39:22.660Z,6.23
2019-04-14T00:44:47.958Z,6.13
2019-04-14T00:49:53.675Z,6.22
2019-04-14T00:54:59.381Z,6.23
2019-04-14T01:00:08.100Z,6.11
2019-04-14T01:05:15.839Z,6.07
2019-04-14T01:10:21.842Z,6.17
2019-04-14T01:15:27.540Z,6.14
2019-04-14T01:20:33.928Z,6.05
2019-04-14T01:25:40.958Z,6.06
2019-04-14T01:30:47.931Z,6.09
2019-04-14T01:35:53.681Z,5.96
2019-04-14T01:40:59.935Z,5.87
2019-04-14T01:46:14.849Z,5.86
2019-04-14T01:51:24.488Z,5.79
2019-04-14T01:56:41.118Z,5.84
2019-04-14T02:01:48.218Z,5.79
2019-04-14T02:06:55.111Z,5.86
2019-04-14T02:12:01.628Z,5.85
2019-04-14T02:17:07.763Z,5.84
2019-04-14T02:22:15.888Z,5.83
2019-04-14T02:27:21.640Z,5.77
2019-04-14T02:33:00.519Z,5.86
2019-04-14T02:38:09.386Z,5.88
2019-04-14T02:43:17.658Z,5.85
2019-04-14T02:48:33.334Z,5.85
2019-04-14T02:53:24.055Z,5.94
2019-04-14T02:58:40.279Z,5.88
2019-04-14T03:03:39.215Z,5.84
2019-04-14T03:09:01.063Z,5.80
2019-04-14T03:13:52.178Z,5.83
2019-04-14T03:18:57.701Z,5.79
2019-04-14T03:24:15.803Z,5.81
2019-04-14T03:29:34.797Z,5.70
2019-04-14T03:39:45.946Z,5.57
2019-04-14T03:50:06.141Z,5.58
2019-04-14T03:55:01.060Z,5.57
2019-04-14T03:59:52.028Z,5.66
2019-04-14T04:04:58.002Z,5.54
2019-04-14T04:10:05.321Z,5.56
2019-04-14T04:15:11.126Z,5.55
2019-04-14T04:20:33.102Z,5.54
2019-04-14T04:25:46.560Z,5.54
2019-04-14T04:31:00.211Z,5.67
2019-04-14T04:36:27.022Z,5.63
2019-04-14T04:41:33.910Z,5.52
2019-04-14T04:46:39.774Z,5.60
2019-04-14T04:51:46.438Z,5.69
2019-04-14T04:56:52.229Z,5.65
2019-04-14T05:01:58.101Z,5.53
2019-04-14T05:07:04.082Z,5.46
2019-04-14T05:12:28.560Z,5.46
2019-04-14T05:17:41.683Z,5.40
2019-04-14T05:22:47.200Z,5.37
2019-04-14T05:27:53.810Z,5.26
2019-04-14T05:32:59.420Z,5.37
2019-04-14T05:38:06.212Z,5.44
2019-04-14T05:43:14.554Z,5.36
2019-04-14T05:48:20.422Z,5.36
2019-04-14T05:53:26.298Z,5.50
2019-04-14T05:58:31.861Z,5.49
2019-04-14T06:03:38.632Z,5.51
2019-04-14T06:08:44.326Z,5.47
2019-04-14T06:13:50.206Z,5.51
2019-04-14T06:18:55.882Z,5.52
2019-04-14T06:24:01.482Z,5.64
2019-04-14T06:29:07.189Z,5.63
2019-04-14T06:34:14.321Z,5.65
2019-04-14T06:39:21.422Z,5.70
2019-04-14T06:44:27.144Z,5.95
2019-04-14T06:49:32.838Z,5.87
2019-04-14T06:54:40.084Z,6.00
2019-04-14T06:59:45.701Z,5.91
2019-04-14T07:04:51.339Z,5.91
2019-04-14T07:09:57.024Z,5.99
2019-04-14T07:15:02.841Z,5.99
2019-04-14T07:20:10.068Z,5.96
2019-04-14T07:25:15.783Z,6.04
2019-04-14T07:30:41.219Z,6.02
2019-04-14T07:36:00.447Z,5.95
2019-04-14T07:41:13.561Z,5.93
2019-04-14T07:46:38.739Z,5.91
2019-04-14T07:51:55.023Z,6.03
2019-04-14T07:57:08.364Z,6.15
2019-04-14T08:02:23.086Z,6.09
2019-04-14T08:07:31.366Z,6.05
2019-04-14T08:12:36.913Z,6.20
2019-04-14T08:17:43.693Z,6.12
2019-04-14T08:22:49.359Z,6.16
2019-04-14T08:27:54.886Z,6.30
2019-04-14T08:33:02.071Z,6.24
2019-04-14T08:38:07.677Z,6.27
2019-04-14T08:43:30.526Z,6.30
2019-04-14T08:48:50.717Z,6.40
2019-04-14T08:54:00.928Z,6.59
2019-04-14T08:59:09.709Z,6.59
2019-04-14T09:04:28.818Z,6.60
2019-04-14T09:09:36.067Z,6.64
2019-04-14T09:14:41.821Z,6.54
2019-04-14T09:19:48.904Z,6.62
2019-04-14T09:24:55.997Z,6.80
2019-04-14T09:30:12.577Z,6.84
2019-04-14T09:35:29.777Z,7.00
2019-04-14T09:40:40.030Z,6.86
2019-04-14T09:45:53.980Z,6.88
2019-04-14T09:51:05.083Z,7.00
2019-04-14T09:56:13.336Z,7.04
2019-04-14T10:01:21.678Z,7.08
2019-04-14T10:06:29.530Z,7.04
2019-04-14T10:11:47.910Z,7.20
2019-04-14T10:16:44.562Z,7.02
2019-04-14T10:21:50.498Z,6.83
2019-04-14T10:26:56.140Z,6.84
2019-04-14T10:32:01.851Z,6.82
2019-04-14T10:37:07.579Z,6.99
2019-04-14T10:42:13.161Z,6.79
2019-04-14T10:47:19.054Z,6.71
2019-04-14T10:52:24.625Z,6.81
2019-04-14T10:57:32.157Z,6.84
2019-04-14T11:02:37.925Z,6.77
2019-04-14T11:07:43.506Z,7.02
2019-04-14T11:12:49.123Z,7.08
2019-04-14T11:17:54.787Z,7.15
2019-04-14T11:23:03.562Z,7.34
2019-04-14T11:28:08.236Z,7.41
2019-04-14T11:33:27.184Z,7.34
2019-04-14T11:38:34.582Z,7.52
2019-04-14T11:43:40.327Z,7.70
2019-04-14T11:48:46.075Z,7.54
2019-04-14T11:53:51.665Z,7.52
2019-04-14T11:58:57.371Z,7.37
2019-04-14T12:04:20.919Z,7.15
2019-04-14T12:09:34.199Z,7.14
2019-04-14T12:14:40.398Z,7.15
2019-04-14T12:19:46.018Z,7.20
2019-04-14T12:24:51.897Z,7.24
2019-04-14T12:29:58.816Z,7.37
2019-04-14T12:35:05.514Z,7.46
2019-04-14T12:40:11.229Z,7.46
2019-04-14T12:45:34.578Z,7.24
2019-04-14T12:50:50.721Z,7.47
2019-04-14T12:55:56.342Z,7.35
2019-04-14T13:01:03.508Z,7.46
2019-04-14T13:06:09.288Z,7.47
2019-04-14T13:11:14.890Z,7.37
2019-04-14T13:16:20.650Z,7.17
2019-04-14T13:21:26.303Z,7.22
2019-04-14T13:26:31.961Z,7.22
2019-04-14T13:31:37.704Z,7.08
2019-04-14T13:36:43.719Z,6.92
2019-04-14T13:41:49.459Z,6.90
2019-04-14T13:46:55.057Z,7.00
2019-04-14T13:52:00.729Z,7.01
2019-04-14T13:57:06.621Z,6.98
2019-04-14T14:02:12.183Z,6.87
2019-04-14T14:07:17.971Z,6.92
2019-04-14T14:12:25.279Z,6.92
2019-04-14T14:17:32.580Z,6.93
2019-04-14T14:22:43.641Z,6.91
2019-04-14T14:27:49.482Z,6.74
2019-04-14T14:32:55.101Z,6.78
2019-04-14T14:38:00.891Z,6.90
2019-04-14T14:43:06.623Z,6.86
2019-04-14T14:48:13.820Z,6.91
2019-04-14T14:53:22.148Z,6.96
2019-04-14T14:58:26.963Z,7.00
2019-04-14T15:03:32.842Z,6.93
2019-04-14T15:08:38.738Z,6.92
2019-04-14T15:13:44.470Z,6.89
2019-04-14T15:18:50.186Z,6.91
2019-04-14T15:23:55.759Z,6.98
2019-04-14T15:29:01.377Z,6.92
2019-04-14T15:34:06.977Z,6.87
2019-04-14T15:39:12.845Z,6.85
2019-04-14T15:44:18.664Z,6.77
2019-04-14T15:49:24.640Z,6.75
2019-04-14T15:54:30.365Z,6.69
2019-04-14T15:59:37.509Z,6.67
2019-04-14T16:04:53.440Z,6.70
2019-04-14T16:10:00.581Z,6.75
2019-04-14T16:15:12.259Z,6.83
2019-04-14T16:20:35.533Z,6.78
2019-04-14T16:25:42.900Z,6.79
2019-04-14T16:30:51.188Z,6.72
2019-04-14T16:35:56.919Z,6.71
2019-04-14T16:41:02.619Z,6.67
2019-04-14T16:46:08.460Z,6.57
2019-04-14T16:51:15.730Z,6.61
2019-04-14T16:56:25.761Z,6.38
2019-04-14T17:01:35.480Z,6.39
2019-04-14T17:06:41.352Z,6.37
2019-04-14T17:11:46.922Z,6.34
2019-04-14T17:16:56.855Z,6.27
2019-04-14T17:22:19.980Z,6.08
2019-04-14T17:27:27.279Z,6.01
2019-04-14T17:32:51.723Z,6.01
2019-04-14T17:38:01.869Z,5.95
2019-04-14T17:43:20.919Z,5.90
2019-04-14T17:48:33.819Z,5.92
2019-04-14T17:53:40.859Z,5.80
2019-04-14T17:58:53.510Z,5.84
2019-04-14T18:04:00.849Z,5.68
2019-04-14T18:09:12.544Z,5.78
2019-04-14T18:14:29.459Z,5.86
2019-04-14T18:19:39.316Z,5.92
2019-04-14T18:24:44.861Z,5.95
2019-04-14T18:29:54.988Z,5.93
2019-04-14T18:35:02.099Z,5.97
2019-04-14T18:40:12.558Z,6.01
2019-04-14T18:45:19.978Z,5.99
2019-04-14T18:50:44.990Z,6.04
2019-04-14T18:55:57.984Z,6.00
2019-04-14T19:01:05.077Z,6.08
2019-04-14T19:06:10.659Z,6.13
2019-04-14T19:11:17.881Z,5.96
2019-04-14T19:16:40.223Z,6.00
2019-04-14T19:21:46.043Z,6.04
2019-04-14T19:26:51.759Z,6.03
2019-04-14T19:31:57.379Z,6.15
2019-04-14T19:37:03.107Z,6.21
2019-04-14T19:42:08.883Z,6.16
2019-04-14T19:47:14.421Z,6.14
2019-04-14T19:52:20.220Z,6.15
2019-04-14T19:57:25.822Z,5.84
2019-04-14T20:02:31.440Z,5.99
2019-04-14T20:07:37.263Z,6.01
2019-04-14T20:12:42.819Z,6.09
2019-04-14T20:17:59.039Z,5.98
2019-04-14T20:23:09.733Z,6.02
2019-04-14T20:28:17.044Z,6.07
2019-04-14T20:33:22.743Z,6.04
2019-04-14T20:38:28.722Z,5.99
2019-04-14T20:43:34.422Z,5.84
2019-04-14T20:48:40.224Z,5.94
2019-04-14T20:53:46.001Z,5.91
2019-04-14T20:58:51.679Z,5.94
2019-04-14T21:04:07.645Z,6.01
2019-04-14T21:09:14.802Z,5.96
2019-04-14T21:14:38.518Z,5.95
2019-04-14T21:19:45.777Z,5.99
2019-04-14T21:24:58.825Z,5.76
2019-04-14T21:30:08.182Z,5.83
2019-04-14T21:35:15.279Z,5.80
2019-04-14T21:40:22.643Z,5.97
2019-04-14T21:45:29.316Z,5.99
2019-04-14T21:50:34.996Z,5.95
2019-04-14T21:55:41.000Z,5.94
2019-04-14T22:01:05.900Z,5.94
2019-04-14T22:06:29.459Z,5.93
2019-04-14T22:11:35.297Z,5.98
2019-04-14T22:16:40.949Z,6.10
2019-04-14T22:21:47.568Z,5.96
2019-04-14T22:26:53.298Z,5.97
2019-04-14T22:31:59.084Z,5.79
2019-04-14T22:37:04.727Z,5.79
2019-04-14T22:42:10.402Z,5.70
2019-04-14T22:47:15.958Z,5.67
2019-04-14T22:52:21.581Z,5.79
2019-04-14T22:57:27.179Z,5.84
2019-04-14T23:02:40.319Z,5.83
2019-04-14T23:07:55.195Z,5.89
2019-04-14T23:13:02.515Z,5.79
2019-04-14T23:18:15.336Z,5.75
2019-04-14T23:23:27.153Z,5.66
2019-04-14T23:28:33.241Z,5.66
2019-04-14T23:33:41.019Z,5.67
2019-04-14T23:38:46.798Z,5.52
2019-04-14T23:43:55.082Z,5.43
2019-04-14T23:49:00.861Z,5.29
2019-04-14T23:54:06.563Z,4.97
2019-04-14T23:59:12.319Z,4.97
